Grapevine, Arkansas
Current Conditions -  °F | °C
As of 4:07 AM on Friday 19 Dec 2014 (Local Time) from KPBF Reporting Station
Overcast Overcast  
Wind Chill:   Ceiling: 600
Heat Index:   Visibility: 7mi
Dew Point:   Wind: 5mph
Humidity: 92%   Direction: 30°NNE
Pressure: 30.21"   Gusts: NA
Location:  34.15°N, 92.32°W
Report Text: KPBF 191007Z AUTO 03004KT 7SM BKN006 OVC019 06/04 A3021 RMK AO2 T00560044
Loading
Personal Weather Stations






























Interactive Weather Map New forecast layout! Learn more

10-Day Weather Forecast

Advertisements
Track Severe Weather on mobile